ADDS METAR Data INFO
IDs: Format: Raw Decoded Include TAF

Data at: 1637 UTC 27 Jul 2017

ETSI 271620Z 26009KT 9999 FEW025 BKN260 20/14 Q1011 BLU+